This is the latest recevied weather packets stored in our database for station/object OE-11361. If no packets are shown the sender has not sent any weather packets the latest 10 day(s).
| Time | Temp. | Humidity | Pressure | Rain* | Wind** | Luminosity | Snow |
|---|---|---|---|---|---|---|---|
| 1787958304 | 15.56° C | 89% | 1020.3 hPa | 4.06 mm | - | 0 W/m² | - |
| 1787957704 | 16.11° C | 85% | 1020.1 hPa | 4.06 mm | - | 0 W/m² | - |
| 1787956877 | 16.67° C | 86% | 1019.1 hPa | 2.79 mm | - | 0 W/m² | - |
| 1787956504 | 18.89° C | 86% | 1017 hPa | 2.29 mm | - | 0 W/m² | - |
| 1787955904 | 19.44° C | 87% | 1016.8 hPa | 1.02 mm | - | 0 W/m² | - |
| 1787955077 | 20.56° C | 80% | 1016.3 hPa | 0 mm | - | 0 W/m² | - |
| 1787954703 | 20.56° C | 78% | 1015.6 hPa | 0 mm | - | 0 W/m² | - |
| 1787954104 | 20.56° C | 81% | 1015.4 hPa | 0 mm | - | 0 W/m² | - |
| 1787953277 | 20.56° C | 80% | 1015.3 hPa | 0 mm | - | 0 W/m² | - |
| 1787952904 | 20.56° C | 81% | 1015 hPa | 0 mm | - | 0 W/m² | - |
| 1787952304 | 20.56° C | 78% | 1014.6 hPa | 0 mm | - | 0 W/m² | - |
| 1787951477 | 21.11° C | 76% | 1014.2 hPa | 0 mm | - | 0 W/m² | - |
| 1787951104 | 21.11° C | 78% | 1014.1 hPa | 0 mm | - | 0 W/m² | - |
| 1787950504 | 21.11° C | 76% | 1013.8 hPa | 0 mm | - | 0 W/m² | - |
| 1787949677 | 21.11° C | 75% | 1013.4 hPa | 0 mm | - | 0 W/m² | - |
| 1787949304 | 21.11° C | 76% | 1013.3 hPa | 0 mm | - | 0 W/m² | - |
| 1787948704 | 21.11° C | 76% | 1013 hPa | 0 mm | - | 0 W/m² | - |
| 1787947877 | 21.11° C | 73% | 1012.8 hPa | 0 mm | - | 0 W/m² | - |
| 1787947503 | 21.11° C | 74% | 1013 hPa | 0 mm | - | 0 W/m² | - |
| 1787946904 | 21.67° C | 72% | 1012.7 hPa | 0 mm | - | 0 W/m² | - |
| 1787946077 | 21.67° C | 72% | 1012.9 hPa | 0 mm | - | 0 W/m² | - |
| 1787945704 | 21.67° C | 72% | 1013.2 hPa | 0 mm | - | 0 W/m² | - |
| 1787945103 | 21.67° C | 70% | 1013.2 hPa | 0 mm | - | 0 W/m² | - |
| 1787944277 | 21.67° C | 69% | 1013.3 hPa | 0 mm | - | 0 W/m² | - |
| 1787943904 | 21.67° C | 70% | 1013.7 hPa | 0 mm | - | 0 W/m² | - |
* Rain latest hour (hover to see other rain measurements)
** Current wind speed in m/s (hover to see current wind gust speed)